• Join FlightAware (Why Join?)
  • Login
  • US Flag 
07:04PM EST


 

Airport Tracker/Info


-or-


 

Live Flight TrackerFlight Track Log ✈ SWA677 ✈ 26-Feb-2014 ✈ KDEN - KMSP

Flight Track Log - Related Links

Times and Time Zones

All times are in EST time to prevent confusion due to time zone crossing. See the SWA677 flight status page for this flight to view local times or setup timezone preferences in your user account.

Time Position Orientation Groundspeed Altitude Reporting Facility
EST Latitude Longitude Course Direction KTS MPH feet Rate Location/Type
04:16PM 39.8833 -104.5667 37° Northeast 184 212 7,100  Level Denver TRACON
04:17PM 39.9000 -104.4833 75° East 252 290 9,000 2,079 Climbing Denver TRACON
04:19PM 39.9500 -104.4000 52° Northeast 317 365 11,500 3,094 Climbing Denver TRACON
04:20PM 40.0333 -104.3833 North 320 368 15,600 3,541 Climbing Denver TRACON
04:21PM 40.1167 -104.4333 335° Northwest 323 372 18,700 3,153 Climbing Denver TRACON
04:22PM 40.3517 -104.4483 37° Northeast  Level FlightAware Approximate
04:22PM 40.2000 -104.5000 329° Northwest 343 395 21,800  Level Denver TRACON
04:23PM 40.3300 -104.4767 North 372 428 24,300 1,959 Climbing Denver Center
04:24PM 40.4192 -104.3892 37° Northeast 395 455 26,600 2,032 Climbing Denver Center
04:25PM 40.5122 -104.2997 36° Northeast 412 474 28,500 2,032 Climbing Denver Center
04:26PM 40.6233 -104.1783 40° Northeast 433 498 30,800 2,016 Climbing Denver Center
04:27PM 40.7128 -104.0639 44° Northeast 445 512 32,700 1,680 Climbing Denver Center
04:28PM 40.8019 -103.9497 44° Northeast 446 513 34,300 1,548 Climbing Denver Center
04:29PM 40.8906 -103.8336 45° Northeast 449 517 35,900 1,403 Climbing Denver Center
04:30PM 40.9636 -103.6961 55° Northeast 468 539 37,200 1,258 Climbing Denver Center
04:31PM 41.0214 -103.5175 67° East 474 545 38,500 871 Climbing Denver Center
04:32PM 41.0719 -103.3631 66° East 478 550 39,000 242 Climbing Denver Center
04:33PM 41.1303 -103.1811 67° East 481 554 39,000  Level Denver Center
04:34PM 41.1806 -103.0264 67° East 480 552 39,000  Level Denver Center
04:35PM 41.2383 -102.8458 67° East 478 550 39,000  Level Denver Center
04:36PM 41.2875 -102.6908 67° East 477 549 39,000  Level Denver Center
04:37PM 41.3428 -102.5186 67° East 475 547 39,000  Level Denver Center
04:38PM 41.4006 -102.3353 67° East 479 551 39,000  Level Denver Center
04:39PM 41.4508 -102.1767 67° East 483 556 39,000  Level Denver Center
04:41PM 41.5103 -101.9900 67° East 489 563 39,000  Level Denver Center
04:42PM 41.5594 -101.8297 68° East 489 563 39,000  Level Denver Center
04:43PM 41.6064 -101.6714 68° East 482 555 39,000  Level Denver Center
04:44PM 41.6622 -101.4850 68° East 482 555 39,000  Level Denver Center
04:45PM 41.7122 -101.3253 67° East 483 556 39,000  Level Denver Center
04:46PM 41.7672 -101.1403 68° East 480 552 39,000  Level Denver Center
04:47PM 41.8156 -100.9819 68° East 478 550 39,000  Level Denver Center
04:48PM 41.8686 -100.7981 69° East 475 547 39,000  Level Denver Center
04:49PM 41.9156 -100.6408 68° East 474 545 39,000  Level Denver Center
04:50PM 41.9622 -100.4817 68° East 477 549 39,000  Level Denver Center
04:51PM 42.0158 -100.2967 69° East 475 547 39,000  Level Denver Center
04:52PM 42.0614 -100.1394 69° East 473 544 39,000  Level Denver Center
04:53PM 42.1150 -99.9594 68° East 467 537 39,000  Level Denver Center
04:54PM 42.1589 -99.8028 69° East 466 536 39,000  Level Denver Center
04:55PM 42.2086 -99.6269 69° East 469 540 39,000  Level Denver Center
04:56PM 42.2556 -99.4608 69° East 470 541 39,000  Level Denver Center
04:57PM 42.3028 -99.2925 69° East 475 547 39,000  Level Denver Center
04:58PM 42.3500 -99.1250 69° East 476 548 39,000  Level Denver Center
04:59PM 42.3969 -98.9531 70° East 483 556 39,000  Level Denver Center
05:00PM 42.4533 -98.7494 69° East 481 554 39,000  Level Denver Center
05:01PM 42.5408 -98.5744 56° Northeast 472 543 39,000  Level Minneapolis Center
05:03PM 42.6236 -98.4461 49° Northeast 460 529 39,000  Level Minneapolis Center
05:04PM 42.7072 -98.3139 49° Northeast 459 528 39,000  Level Minneapolis Center
05:05PM 42.8056 -98.1556 50° Northeast 460 529 39,000  Level Minneapolis Center
05:06PM 42.8881 -98.0206 50° Northeast 460 529 39,000  Level Minneapolis Center
05:07PM 42.9728 -97.8897 48° Northeast 461 531 39,000  Level Minneapolis Center
05:08PM 43.0547 -97.7561 50° Northeast 460 529 39,000  Level Minneapolis Center
05:09PM 43.1369 -97.6214 50° Northeast 461 531 39,000  Level Minneapolis Center
05:10PM 43.2344 -97.4644 50° Northeast 457 526 39,000  Level Minneapolis Center
05:11PM 43.3158 -97.3319 50° Northeast 456 525 39,000  Level Minneapolis Center
05:12PM 43.3986 -97.1969 50° Northeast 460 529 39,000  Level Minneapolis Center
05:13PM 43.4761 -97.0539 53° Northeast 464 534 39,000  Level Minneapolis Center
05:14PM 43.5500 -96.8881 58° Northeast 473 544 39,000  Level Minneapolis Center
05:15PM 43.6147 -96.7461 58° Northeast 473 544 39,000  Level Minneapolis Center
05:16PM 43.6964 -96.5631 58° Northeast 473 544 39,000  Level Minneapolis Center
05:17PM 43.7650 -96.4131 58° Northeast 471 542 39,000  Level Minneapolis Center
05:18PM 43.8319 -96.2608 59° Northeast 470 541 39,000  Level Minneapolis Center
05:19PM 43.8989 -96.1094 58° Northeast 470 541 39,000  Level Minneapolis Center
05:20PM 43.9675 -95.9597 57° Northeast 470 541 39,000 -387 Level Minneapolis Center
05:21PM 44.0469 -95.7775 59° Northeast 470 541 38,200 -1,597 Descending Minneapolis Center
05:22PM 44.1128 -95.6253 59° Northeast 469 540 35,700 -2,640 Descending Minneapolis Center
05:23PM 44.1783 -95.4750 59° Northeast 462 532 32,700 -2,832 Descending Minneapolis Center
05:24PM 44.2481 -95.3128 59° Northeast 458 527 29,800 -2,710 Descending Minneapolis Center
05:25PM 44.3167 -95.1539 59° Northeast 437 503 27,100 -2,371 Descending Minneapolis Center
05:26PM 44.3742 -95.0175 59° Northeast 418 481 24,900 -2,081 Descending Minneapolis Center
05:27PM 44.4297 -94.8883 59° Northeast 397 457 22,800 -1,984 Descending Minneapolis Center
05:28PM 44.4811 -94.7628 60° Northeast 382 440 20,800 -2,032 Descending Minneapolis Center
05:29PM 44.5378 -94.6294 59° Northeast 372 428 18,600 -2,081 Descending Minneapolis Center
05:30PM 44.5867 -94.5133 59° Northeast 350 403 16,500 -1,984 Descending Minneapolis Center
05:31PM 44.6344 -94.3953 60° Northeast 347 399 14,500 -1,887 Descending Minneapolis Center
05:33PM 44.6689 -94.2642 70° East 358 412 12,600 -1,500 Descending Minneapolis Center
05:34PM 44.6983 -94.1339 72° East 352 405 11,400 -726 Descending Minneapolis Center
05:35PM 44.7297 -93.9931 73° East 317 365 11,100 -194 Descending Minneapolis Center
05:36PM 44.7564 -93.8753 72° East 317 365 11,000 -48 Descending Minneapolis Center
05:37PM 44.7822 -93.7569 73° East 317 365 11,000 -720 Level Minneapolis Center
05:38PM 44.8092 -93.6369 72° East 319 367 9,500 -968 Descending Minneapolis Center
05:39PM 44.8342 -93.5228 73° East 307 353 9,000 -435 Descending Minneapolis Center
05:40PM 44.8556 -93.4236 73° East 266 306 8,600 -484 Descending Minneapolis Center
05:41PM 44.8481 -93.3353 97° East 262 302 8,000 -774 Descending Minneapolis Center
05:42PM 44.7714 -93.3144 169° South 239 275 7,000 -968 Descending Minneapolis Center
05:43PM 44.7103 -93.3000 170° South 233 268 6,000 -780 Descending Minneapolis Center
05:44PM 44.6500 -93.2869 171° South 226 260 5,400 -829 Descending Minneapolis Center
05:45PM 44.6392 -93.2236 103° East 226 260 4,300 -677 Descending Minneapolis Center
05:46PM 44.6939 -93.1989 18° North 173 199 4,000 -435 Descending Minneapolis Center
05:47PM 44.7344 -93.2019 357° North 151 174 3,400 -629 Descending Minneapolis Center
05:48PM 44.7728 -93.2125 349° North 151 174 2,700 -726 Descending Minneapolis Center
05:49PM 44.8169 -93.2239 350° North 138 159 1,900 -774 Descending Minneapolis Center
05:50PM 44.8511 -93.2325 350° North 131 151 1,100 -774 Descending Minneapolis Center
05:52PM 44.8667 -93.2167 90° East  Level FlightAware Approximate
05:59PM 44.8820 -93.2218 90° East  Level Estimated